Time;durP1;ratioP1;P1;durP2;ratioP2;P2;SDS_P1;SDS_P2;PMS_P1;PMS_P2;Temp;Humidity;BMP_temperature;BMP_pressure;BME280_temperature;BME280_humidity;BME280_pressure;Samples;Min_cycle;Max_cycle;Signal;HPM_P1;HPM_P2
2023/03/03 00:01:38;;;;;;;;;;;;;;;2.04;58.73;92628.22;2058126;69;20097;-74
2023/03/03 00:04:04;;;;;;;;;;;;;;;2.07;60.18;92624.34;2058033;69;20073;-76
2023/03/03 00:06:31;;;;;;;;;;;;;;;2.13;58.35;92618.59;2057820;69;20054;-75
2023/03/03 00:08:58;;;;;;;;;;;;;;;2.02;58.65;92622.50;2057825;69;20050;-75
2023/03/03 00:11:24;;;;;;;;;;;;;;;1.89;59.42;92631.03;2058015;69;20074;-75
2023/03/03 00:13:55;;;;;;;;;;;;;;;1.86;60.07;92630.09;2058513;69;20054;-76
2023/03/03 00:16:21;;;;;;;;;;;;;;;1.88;59.95;92632.31;2060071;69;20058;-76
2023/03/03 00:18:46;;;;;;;;;;;;;;;1.80;60.25;92632.34;2060997;69;20054;-74
2023/03/03 00:21:22;;;;;;;;;;;;;;;1.87;58.97;92628.06;2060288;69;20058;-74
2023/03/03 00:23:47;;;;;;;;;;;;;;;1.79;59.60;92625.31;2060588;69;20061;-76
2023/03/03 00:26:19;;;;;;;;;;;;;;;1.86;60.11;92630.09;2058896;69;20066;-76
2023/03/03 00:28:49;;;;;;;;;;;;;;;1.78;60.19;92626.59;2057291;69;20747;-77
2023/03/03 00:31:19;;;;;;;;;;;;;;;1.80;60.84;92629.56;2057443;69;20086;-77
2023/03/03 00:33:47;;;;;;;;;;;;;;;1.77;59.63;92625.84;2057677;69;20502;-77
2023/03/03 00:36:12;;;;;;;;;;;;;;;1.75;60.00;92628.44;2057637;69;20050;-76
2023/03/03 00:38:38;;;;;;;;;;;;;;;1.82;58.87;92626.94;2057330;69;20072;-76
2023/03/03 00:41:10;;;;;;;;;;;;;;;1.88;60.12;92633.06;2057928;69;20066;-77
2023/03/03 00:43:36;;;;;;;;;;;;;;;1.99;59.78;92620.84;2057978;69;20147;-76
2023/03/03 00:46:01;;;;;;;;;;;;;;;1.78;59.36;92621.03;2058664;69;20477;-75
2023/03/03 00:48:40;;;;;;;;;;;;;;;1.75;60.24;92624.94;2058773;69;20042;-76
2023/03/03 00:51:13;;;;;;;;;;;;;;;1.54;60.51;92627.88;2058468;69;20050;-75
2023/03/03 00:53:38;;;;;;;;;;;;;;;1.83;59.37;92624.91;2057920;69;20169;-74
2023/03/03 00:56:04;;;;;;;;;;;;;;;1.82;60.31;92624.19;2058046;69;20478;-77
2023/03/03 00:58:29;;;;;;;;;;;;;;;1.67;60.27;92627.69;2058085;69;20082;-78
2023/03/03 01:00:57;;;;;;;;;;;;;;;1.65;60.36;92624.75;2058098;69;20046;-78
2023/03/03 01:03:29;;;;;;;;;;;;;;;1.73;60.56;92624.75;2057805;69;20054;-77
2023/03/03 01:05:54;;;;;;;;;;;;;;;1.67;61.25;92618.63;2058520;69;20107;-77
2023/03/03 01:08:21;;;;;;;;;;;;;;;1.65;59.69;92612.88;2057809;69;20042;-77
2023/03/03 01:10:50;;;;;;;;;;;;;;;1.66;59.84;92617.91;2059613;69;20050;-77
2023/03/03 01:13:16;;;;;;;;;;;;;;;1.42;60.31;92612.88;2061298;69;20085;-78
2023/03/03 01:15:43;;;;;;;;;;;;;;;1.65;60.69;92613.66;2061112;69;20057;-77
2023/03/03 01:18:09;;;;;;;;;;;;;;;1.66;59.91;92615.13;2061795;69;20038;-78
2023/03/03 01:20:35;;;;;;;;;;;;;;;1.66;60.54;92617.16;2061642;69;20057;-77
2023/03/03 01:23:00;;;;;;;;;;;;;;;1.70;60.82;92612.00;2061873;69;20486;-75
2023/03/03 01:25:26;;;;;;;;;;;;;;;1.59;60.51;92601.97;2061342;69;20440;-73
2023/03/03 01:27:51;;;;;;;;;;;;;;;1.53;60.47;92606.97;2061771;69;20459;-77
2023/03/03 01:30:17;;;;;;;;;;;;;;;1.48;61.51;92607.91;2061625;69;20077;-78
2023/03/03 01:32:42;;;;;;;;;;;;;;;1.45;60.75;92595.13;2060358;69;20057;-76
2023/03/03 01:35:08;;;;;;;;;;;;;;;1.56;60.46;92600.34;2061196;69;20141;-76
2023/03/03 01:37:34;;;;;;;;;;;;;;;1.49;60.15;92604.56;2061681;69;20421;-77
2023/03/03 01:40:01;;;;;;;;;;;;;;;1.49;61.15;92596.25;2058262;69;20406;-76
2023/03/03 01:42:28;;;;;;;;;;;;;;;1.53;59.62;92604.94;2061877;69;20054;-77
2023/03/03 01:45:13;;;;;;;;;;;;;;;1.40;60.05;92607.16;2061273;69;20489;-76
2023/03/03 01:47:49;;;;;;;;;;;;;;;1.24;61.51;92600.88;2061747;69;20065;-77
2023/03/03 01:50:19;;;;;;;;;;;;;;;1.24;60.68;92604.38;2061264;69;20494;-77
2023/03/03 01:52:45;;;;;;;;;;;;;;;1.27;61.21;92611.56;2061366;69;20093;-78
2023/03/03 01:55:16;;;;;;;;;;;;;;;1.32;60.52;92612.69;2061714;69;20209;-77
2023/03/03 01:57:44;;;;;;;;;;;;;;;1.13;61.56;92606.75;2061220;69;20093;-77
2023/03/03 02:00:10;;;;;;;;;;;;;;;1.08;61.09;92613.22;2061250;69;20069;-74
2023/03/03 02:02:54;;;;;;;;;;;;;;;1.18;61.17;92614.16;2061110;69;20131;-77
2023/03/03 02:05:20;;;;;;;;;;;;;;;1.12;60.95;92619.16;2057493;69;20085;-76
2023/03/03 02:07:45;;;;;;;;;;;;;;;1.11;61.08;92609.34;2057381;69;20394;-76
2023/03/03 02:10:12;;;;;;;;;;;;;;;1.10;60.75;92611.38;2057818;69;20046;-77
2023/03/03 02:12:44;;;;;;;;;;;;;;;0.98;61.79;92610.97;2058007;69;20141;-77
2023/03/03 02:15:15;;;;;;;;;;;;;;;1.06;61.92;92605.47;2057703;69;20078;-75
2023/03/03 02:17:41;;;;;;;;;;;;;;;1.18;61.01;92605.84;2058275;69;20054;-76
2023/03/03 02:20:14;;;;;;;;;;;;;;;1.22;61.11;92604.19;2056603;69;20054;-75
2023/03/03 02:22:39;;;;;;;;;;;;;;;1.08;60.18;92599.34;2059362;69;20509;-77
2023/03/03 02:25:07;;;;;;;;;;;;;;;1.04;60.52;92602.47;2058685;69;20085;-75
2023/03/03 02:27:33;;;;;;;;;;;;;;;0.97;60.39;92615.03;2058623;69;20048;-74
2023/03/03 02:30:07;;;;;;;;;;;;;;;1.01;61.00;92607.13;2057917;69;20050;-72
2023/03/03 02:32:33;;;;;;;;;;;;;;;0.97;61.73;92611.53;2054915;69;20046;-73
2023/03/03 02:34:59;;;;;;;;;;;;;;;0.91;60.82;92611.69;2057762;69;20062;-77
2023/03/03 02:37:25;;;;;;;;;;;;;;;1.02;61.44;92608.59;2058381;69;20146;-76
2023/03/03 02:39:50;;;;;;;;;;;;;;;1.08;60.58;92616.72;2057963;69;20054;-75
2023/03/03 02:42:16;;;;;;;;;;;;;;;1.05;59.72;92612.28;2057976;69;20589;-77
2023/03/03 02:44:47;;;;;;;;;;;;;;;0.92;61.38;92612.47;2058000;69;20120;-75
2023/03/03 02:47:12;;;;;;;;;;;;;;;0.91;60.88;92620.00;2058312;69;20073;-77
2023/03/03 02:49:38;;;;;;;;;;;;;;;0.81;62.07;92604.47;2057950;69;20061;-76
2023/03/03 02:52:05;;;;;;;;;;;;;;;0.75;62.73;92613.69;2055417;69;20498;-74
2023/03/03 02:54:31;;;;;;;;;;;;;;;0.75;61.00;92610.91;2058425;69;20054;-73
2023/03/03 02:56:59;;;;;;;;;;;;;;;0.74;62.13;92606.66;2058387;69;20572;-74
2023/03/03 02:59:25;;;;;;;;;;;;;;;0.70;62.62;92611.09;2058863;69;20445;-73
2023/03/03 03:01:51;;;;;;;;;;;;;;;0.75;62.41;92616.47;2058454;69;20045;-73
2023/03/03 03:04:19;;;;;;;;;;;;;;;0.71;61.98;92618.09;2058265;69;20421;-74
2023/03/03 03:06:47;;;;;;;;;;;;;;;0.53;62.03;92616.38;2058936;69;20088;-77
2023/03/03 03:09:15;;;;;;;;;;;;;;;0.62;62.24;92615.84;2058371;69;20509;-75
2023/03/03 03:11:41;;;;;;;;;;;;;;;0.62;62.75;92616.59;2058316;69;20074;-76
2023/03/03 03:14:09;;;;;;;;;;;;;;;0.64;62.54;92608.50;2058361;69;20482;-76
2023/03/03 03:16:34;;;;;;;;;;;;;;;0.64;61.63;92610.50;2058898;69;20141;-76
2023/03/03 03:19:00;;;;;;;;;;;;;;;0.50;63.56;92609.88;2058259;69;20172;-74
2023/03/03 03:21:27;;;;;;;;;;;;;;;0.52;62.67;92612.13;2058433;69;20058;-76
2023/03/03 03:23:52;;;;;;;;;;;;;;;0.61;61.76;92612.34;2058323;69;20068;-75
2023/03/03 03:26:19;;;;;;;;;;;;;;;0.62;62.18;92613.81;2058318;69;20061;-74
2023/03/03 03:28:47;;;;;;;;;;;;;;;0.54;61.62;92620.63;2058392;69;20054;-73
2023/03/03 03:31:14;;;;;;;;;;;;;;;0.60;61.36;92616.41;2058901;69;20140;-74
2023/03/03 03:33:39;;;;;;;;;;;;;;;0.53;62.29;92628.19;2058219;69;20060;-73
2023/03/03 03:36:06;;;;;;;;;;;;;;;0.51;61.03;92636.31;2058291;69;20146;-72
2023/03/03 03:38:33;;;;;;;;;;;;;;;0.40;63.90;92642.16;2058311;69;20406;-76
2023/03/03 03:40:58;;;;;;;;;;;;;;;0.33;63.31;92640.13;2058823;69;20053;-76
2023/03/03 03:43:25;;;;;;;;;;;;;;;0.42;63.21;92639.59;2058763;69;20097;-75
2023/03/03 03:45:51;;;;;;;;;;;;;;;0.46;62.47;92637.22;2058133;69;20077;-75
2023/03/03 03:48:18;;;;;;;;;;;;;;;0.54;62.93;92637.97;2058606;69;20497;-75
2023/03/03 03:50:49;;;;;;;;;;;;;;;0.46;63.44;92631.69;2055411;69;20077;-74
2023/03/03 03:53:15;;;;;;;;;;;;;;;0.53;63.90;92633.00;2058727;69;20054;-75
2023/03/03 03:55:41;;;;;;;;;;;;;;;0.58;63.02;92624.53;2058620;69;20129;-73
2023/03/03 03:58:06;;;;;;;;;;;;;;;0.44;63.99;92642.56;2058127;69;20054;-73
2023/03/03 04:00:32;;;;;;;;;;;;;;;0.45;63.50;92632.94;2058686;69;20120;-73
2023/03/03 04:02:59;;;;;;;;;;;;;;;0.62;63.13;92638.75;2055223;69;20050;-73
2023/03/03 04:05:25;;;;;;;;;;;;;;;0.66;62.66;92639.16;2058283;69;20058;-73
2023/03/03 04:07:52;;;;;;;;;;;;;;;0.68;63.02;92636.56;2058224;69;20090;-72
2023/03/03 04:10:18;;;;;;;;;;;;;;;0.66;63.77;92641.91;2058201;69;20413;-76
2023/03/03 04:12:44;;;;;;;;;;;;;;;0.81;62.87;92632.91;2058260;69;20141;-77
2023/03/03 04:15:14;;;;;;;;;;;;;;;0.70;63.47;92642.31;2058178;69;20069;-76
2023/03/03 04:17:41;;;;;;;;;;;;;;;0.80;63.42;92636.25;2058075;69;20107;-75
2023/03/03 04:20:07;;;;;;;;;;;;;;;0.94;63.09;92640.34;2058234;69;20054;-77
2023/03/03 04:22:34;;;;;;;;;;;;;;;0.82;63.58;92639.94;2058175;69;20057;-77
2023/03/03 04:25:03;;;;;;;;;;;;;;;0.85;63.78;92638.09;2058135;69;20074;-74
2023/03/03 04:27:35;;;;;;;;;;;;;;;1.07;63.06;92634.66;2058173;69;20490;-77
2023/03/03 04:30:01;;;;;;;;;;;;;;;1.12;63.21;92635.78;2058029;69;20087;-78
2023/03/03 04:32:27;;;;;;;;;;;;;;;1.35;62.00;92635.81;2057929;69;20445;-76
2023/03/03 04:34:53;;;;;;;;;;;;;;;1.33;62.87;92641.94;2058145;69;20046;-77
2023/03/03 04:37:18;;;;;;;;;;;;;;;1.29;62.58;92647.09;2058637;69;20080;-78
2023/03/03 04:39:44;;;;;;;;;;;;;;;1.33;62.77;92649.50;2058102;69;20066;-76
2023/03/03 04:42:11;;;;;;;;;;;;;;;1.49;61.42;92640.63;2058350;69;20066;-77
2023/03/03 04:44:36;;;;;;;;;;;;;;;1.57;61.48;92637.16;2058346;69;20046;-78
2023/03/03 04:47:01;;;;;;;;;;;;;;;1.29;63.35;92638.78;2058736;69;20050;-76
2023/03/03 04:49:27;;;;;;;;;;;;;;;1.37;63.31;92638.78;2058238;69;20157;-78
2023/03/03 04:51:53;;;;;;;;;;;;;;;1.20;63.87;92642.81;2058286;69;20142;-77
2023/03/03 04:54:18;;;;;;;;;;;;;;;1.38;64.25;92643.03;2055387;69;20046;-78
2023/03/03 04:56:44;;;;;;;;;;;;;;;1.40;63.15;92640.44;2058032;69;20455;-77
2023/03/03 04:59:09;;;;;;;;;;;;;;;1.28;64.19;92637.28;2058421;69;20437;-75
2023/03/03 05:01:36;;;;;;;;;;;;;;;1.45;63.51;92640.25;2057984;69;20057;-76
2023/03/03 05:04:02;;;;;;;;;;;;;;;1.53;62.14;92641.00;2057935;69;20512;-74
2023/03/03 05:06:27;;;;;;;;;;;;;;;1.51;62.43;92642.84;2058395;69;20546;-75
2023/03/03 05:08:53;;;;;;;;;;;;;;;1.50;62.83;92636.56;2058452;69;20137;-73
2023/03/03 05:11:19;;;;;;;;;;;;;;;1.51;62.71;92634.53;2057902;69;20092;-77
2023/03/03 05:13:44;;;;;;;;;;;;;;;1.39;62.21;92616.78;2058471;69;20042;-78
2023/03/03 05:16:10;;;;;;;;;;;;;;;1.43;63.02;92639.34;2058680;69;20070;-77
2023/03/03 05:18:35;;;;;;;;;;;;;;;1.38;62.80;92637.50;2058468;69;20056;-77
2023/03/03 05:21:01;;;;;;;;;;;;;;;1.39;62.67;92636.19;2058572;69;20057;-74
2023/03/03 05:23:27;;;;;;;;;;;;;;;1.37;62.81;92636.72;2058462;69;20057;-76
2023/03/03 05:25:53;;;;;;;;;;;;;;;1.36;62.11;92640.06;2058430;69;20165;-77
2023/03/03 05:28:18;;;;;;;;;;;;;;;1.13;62.66;92640.03;2058538;69;20522;-77
2023/03/03 05:30:44;;;;;;;;;;;;;;;1.11;63.85;92639.84;2058492;69;20053;-75
2023/03/03 05:33:12;;;;;;;;;;;;;;;1.31;63.64;92641.00;2058364;69;20149;-76
2023/03/03 05:35:37;;;;;;;;;;;;;;;1.23;62.59;92636.16;2058543;69;20054;-74
2023/03/03 05:38:03;;;;;;;;;;;;;;;1.28;62.69;92642.81;2058649;69;20046;-74
2023/03/03 05:40:28;;;;;;;;;;;;;;;1.27;62.51;92644.84;2058639;69;20042;-76
2023/03/03 05:42:53;;;;;;;;;;;;;;;1.32;62.47;92654.28;2058655;69;20060;-76
2023/03/03 05:45:20;;;;;;;;;;;;;;;1.32;62.78;92636.91;2058699;69;20053;-74
2023/03/03 05:47:46;;;;;;;;;;;;;;;1.34;62.17;92654.50;2058460;69;20154;-77
2023/03/03 05:50:11;;;;;;;;;;;;;;;1.22;62.10;92645.78;2058583;69;20186;-76
2023/03/03 05:52:37;;;;;;;;;;;;;;;1.16;63.20;92658.34;2058016;69;20158;-77
2023/03/03 05:55:04;;;;;;;;;;;;;;;1.22;62.92;92653.34;2058480;69;20057;-75
2023/03/03 05:57:30;;;;;;;;;;;;;;;1.26;63.38;92668.34;2058693;69;20094;-77
2023/03/03 05:59:55;;;;;;;;;;;;;;;1.27;62.92;92658.72;2058713;69;20046;-74
2023/03/03 06:02:21;;;;;;;;;;;;;;;1.36;63.13;92662.25;2058500;69;20159;-77
2023/03/03 06:04:46;;;;;;;;;;;;;;;1.46;62.42;92663.19;2058557;69;20050;-77
2023/03/03 06:07:12;;;;;;;;;;;;;;;1.39;63.29;92670.22;2058607;69;20050;-76
2023/03/03 06:09:37;;;;;;;;;;;;;;;1.48;62.16;92660.63;2058718;69;20050;-77
2023/03/03 06:12:03;;;;;;;;;;;;;;;1.40;63.26;92668.19;2058590;69;20050;-77
2023/03/03 06:14:28;;;;;;;;;;;;;;;1.53;62.12;92671.53;2058622;69;20513;-76
2023/03/03 06:16:54;;;;;;;;;;;;;;;1.49;63.52;92665.59;2058518;69;20506;-77
2023/03/03 06:19:19;;;;;;;;;;;;;;;1.47;63.31;92676.53;2058517;69;20141;-78
2023/03/03 06:21:45;;;;;;;;;;;;;;;1.56;63.50;92674.50;2058456;69;20501;-77
2023/03/03 06:24:10;;;;;;;;;;;;;;;1.60;63.42;92680.41;2058349;69;20057;-74
2023/03/03 06:26:36;;;;;;;;;;;;;;;1.47;64.79;92686.91;2058337;69;20399;-74
2023/03/03 06:29:01;;;;;;;;;;;;;;;1.47;64.44;92690.41;2058421;69;20048;-75
2023/03/03 06:31:27;;;;;;;;;;;;;;;1.66;63.37;92681.72;2058233;69;20363;-75
2023/03/03 06:33:53;;;;;;;;;;;;;;;1.72;62.95;92679.50;2058318;69;20482;-73
2023/03/03 06:36:19;;;;;;;;;;;;;;;1.81;63.11;92689.31;2058387;69;20065;-77
2023/03/03 06:38:44;;;;;;;;;;;;;;;1.86;62.99;92684.88;2058501;69;20066;-75
2023/03/03 06:41:11;;;;;;;;;;;;;;;1.74;64.11;92679.72;2058560;69;20069;-73
2023/03/03 06:43:37;;;;;;;;;;;;;;;1.84;63.34;92684.72;2058570;69;20172;-74
2023/03/03 06:46:03;;;;;;;;;;;;;;;1.78;62.77;92691.16;2058603;69;20096;-77
2023/03/03 06:48:29;;;;;;;;;;;;;;;1.94;62.98;92693.97;2058487;69;20038;-80
2023/03/03 06:50:55;;;;;;;;;;;;;;;2.00;62.60;92694.50;2058521;69;20053;-78
2023/03/03 06:53:21;;;;;;;;;;;;;;;1.94;62.80;92689.16;2058482;69;20085;-74
2023/03/03 06:55:46;;;;;;;;;;;;;;;1.95;62.68;92689.88;2058447;69;20518;-79
2023/03/03 06:58:13;;;;;;;;;;;;;;;2.07;62.23;92687.50;2058545;69;20490;-75
2023/03/03 07:00:40;;;;;;;;;;;;;;;2.09;61.44;92693.22;2058435;69;20546;-75
2023/03/03 07:03:15;;;;;;;;;;;;;;;2.12;60.45;92692.09;2058662;69;20133;-74
2023/03/03 07:05:41;;;;;;;;;;;;;;;2.07;61.21;92696.56;2058287;69;20074;-75
2023/03/03 07:08:12;;;;;;;;;;;;;;;1.84;61.92;92693.03;2058269;69;20410;-75
2023/03/03 07:10:38;;;;;;;;;;;;;;;2.05;61.19;92701.91;2058508;69;20054;-77
2023/03/03 07:13:15;;;;;;;;;;;;;;;1.99;60.97;92698.59;2058394;69;20182;-77
2023/03/03 07:15:41;;;;;;;;;;;;;;;1.98;61.70;92700.63;2058348;69;20070;-76
2023/03/03 07:18:21;;;;;;;;;;;;;;;2.04;61.47;92698.41;2058315;69;20137;-78
2023/03/03 07:20:46;;;;;;;;;;;;;;;2.15;61.17;92694.50;2058468;69;20046;-77
2023/03/03 07:23:48;;;;;;;;;;;;;;;1.96;58.99;92696.91;2058286;69;20141;-78
2023/03/03 07:26:16;;;;;;;;;;;;;;;2.08;58.81;92692.47;2050897;70;20585;-76
2023/03/03 07:28:42;;;;;;;;;;;;;;;2.23;58.54;92698.00;2050997;70;20083;-78
2023/03/03 07:31:37;;;;;;;;;;;;;;;2.23;59.11;92700.06;2051006;70;20165;-74
2023/03/03 07:34:26;;;;;;;;;;;;;;;2.02;59.71;92700.25;2049246;70;20396;-76
2023/03/03 07:36:58;;;;;;;;;;;;;;;1.98;59.86;92697.84;2049916;70;20523;-76
2023/03/03 07:39:24;;;;;;;;;;;;;;;2.17;59.44;92703.03;2051439;70;20169;-75
2023/03/03 07:41:50;;;;;;;;;;;;;;;2.15;60.55;92708.38;2051532;70;20141;-76
2023/03/03 07:44:28;;;;;;;;;;;;;;;2.25;60.14;92712.09;2051461;70;20050;-75
2023/03/03 07:46:53;;;;;;;;;;;;;;;2.14;59.79;92715.25;2051415;70;20136;-76
2023/03/03 07:49:23;;;;;;;;;;;;;;;2.09;59.87;92718.22;2051458;70;20470;-77
2023/03/03 07:51:56;;;;;;;;;;;;;;;2.15;59.81;92724.31;2054812;70;20569;-77
2023/03/03 07:54:24;;;;;;;;;;;;;;;2.25;59.99;92722.47;2052976;70;20118;-75
2023/03/03 07:56:49;;;;;;;;;;;;;;;2.22;60.04;92732.66;2051346;70;20070;-74
2023/03/03 07:59:24;;;;;;;;;;;;;;;2.25;60.61;92734.31;2052233;69;20122;-76
2023/03/03 08:01:56;;;;;;;;;;;;;;;2.37;60.00;92733.94;2058207;69;20172;-75
2023/03/03 08:04:23;;;;;;;;;;;;;;;2.34;60.13;92729.47;2058864;69;20054;-75
2023/03/03 08:06:53;;;;;;;;;;;;;;;2.46;59.63;92734.09;2058940;69;20060;-75
2023/03/03 08:09:18;;;;;;;;;;;;;;;2.53;59.87;92732.63;2058754;69;20141;-79
2023/03/03 08:11:48;;;;;;;;;;;;;;;2.57;60.34;92735.00;2058798;69;20543;-76
2023/03/03 08:14:15;;;;;;;;;;;;;;;2.64;59.10;92731.50;2058776;69;20056;-75
2023/03/03 08:16:40;;;;;;;;;;;;;;;2.72;59.40;92735.75;2058730;69;20069;-76
2023/03/03 08:19:06;;;;;;;;;;;;;;;2.76;60.02;92738.88;2058578;69;20042;-76
2023/03/03 08:21:33;;;;;;;;;;;;;;;3.37;59.55;92740.00;2058869;69;20626;-77
2023/03/03 08:23:58;;;;;;;;;;;;;;;3.82;59.39;92739.00;2058965;69;20052;-78
2023/03/03 08:26:24;;;;;;;;;;;;;;;4.20;58.46;92738.75;2058725;69;20046;-76
2023/03/03 08:28:50;;;;;;;;;;;;;;;4.47;58.38;92738.91;2058755;69;20093;-74
2023/03/03 08:31:16;;;;;;;;;;;;;;;4.68;57.59;92738.53;2058558;69;20100;-76
2023/03/03 08:33:42;;;;;;;;;;;;;;;5.10;57.10;92724.53;2058280;69;20056;-78
2023/03/03 08:36:08;;;;;;;;;;;;;;;5.50;56.13;92723.53;2058924;69;20058;-78
2023/03/03 08:38:33;;;;;;;;;;;;;;;5.77;56.03;92723.53;2058817;69;20068;-76
2023/03/03 08:40:59;;;;;;;;;;;;;;;6.24;53.50;92713.19;2058774;69;20541;-74
2023/03/03 08:43:24;;;;;;;;;;;;;;;6.63;52.16;92707.72;2058881;69;20158;-74
2023/03/03 08:45:51;;;;;;;;;;;;;;;6.77;52.35;92711.56;2058899;69;20062;-76
2023/03/03 08:48:17;;;;;;;;;;;;;;;6.98;50.55;92711.03;2058619;69;20062;-77
2023/03/03 08:50:43;;;;;;;;;;;;;;;7.06;50.24;92716.50;2058617;69;20042;-80
2023/03/03 08:53:09;;;;;;;;;;;;;;;7.56;49.17;92711.03;2058754;69;20057;-80
2023/03/03 08:55:35;;;;;;;;;;;;;;;7.90;47.69;92707.13;2058628;69;20228;-80
2023/03/03 08:58:00;;;;;;;;;;;;;;;8.34;47.11;92716.47;2058765;69;20499;-78
2023/03/03 09:00:25;;;;;;;;;;;;;;;8.17;45.54;92708.97;2058505;69;20116;-79
2023/03/03 09:02:52;;;;;;;;;;;;;;;8.33;46.24;92712.91;2058459;69;20458;-76
2023/03/03 09:05:19;;;;;;;;;;;;;;;9.35;45.75;92716.22;2058567;69;20120;-78
2023/03/03 09:07:45;;;;;;;;;;;;;;;9.67;44.68;92720.38;2058054;69;20124;-77
2023/03/03 09:10:11;;;;;;;;;;;;;;;8.96;42.85;92718.53;2058525;69;20058;-74
2023/03/03 09:12:38;;;;;;;;;;;;;;;9.25;43.28;92724.69;2058560;69;20054;-77
2023/03/03 09:15:24;;;;;;;;;;;;;;;9.33;43.66;92718.88;2058403;69;20502;-79
2023/03/03 09:17:50;;;;;;;;;;;;;;;10.01;41.05;92707.03;2058054;69;20050;-76
2023/03/03 09:20:21;;;;;;;;;;;;;;;10.60;41.19;92727.59;2060861;69;20513;-79
2023/03/03 09:22:48;;;;;;;;;;;;;;;11.02;39.56;92715.31;2060404;69;20046;-78
2023/03/03 09:25:22;;;;;;;;;;;;;;;10.78;38.56;92720.25;2059759;69;20053;-78
2023/03/03 09:27:47;;;;;;;;;;;;;;;11.36;39.56;92722.25;2060342;69;20486;-78
2023/03/03 09:30:18;;;;;;;;;;;;;;;11.21;40.54;92728.41;2060726;69;20046;-80
2023/03/03 09:32:44;;;;;;;;;;;;;;;11.41;39.65;92726.78;2060323;69;20460;-77
2023/03/03 09:35:25;;;;;;;;;;;;;;;12.11;38.54;92728.63;2061183;69;20118;-79
2023/03/03 09:37:50;;;;;;;;;;;;;;;12.39;37.26;92712.50;2061142;69;20074;-79
2023/03/03 09:40:36;;;;;;;;;;;;;;;12.88;37.33;92715.13;2062515;69;20136;-78
2023/03/03 09:43:04;;;;;;;;;;;;;;;13.19;36.71;92713.84;2063688;69;20108;-79
2023/03/03 09:45:39;;;;;;;;;;;;;;;12.43;37.25;92718.38;2060383;69;20141;-79
2023/03/03 09:48:11;;;;;;;;;;;;;;;13.37;36.89;92720.47;2057408;69;20474;-78
2023/03/03 09:50:47;;;;;;;;;;;;;;;14.27;35.66;92716.34;2057894;69;20069;-75
2023/03/03 09:53:13;;;;;;;;;;;;;;;13.90;36.00;92714.59;2058198;69;20124;-79
2023/03/03 09:55:38;;;;;;;;;;;;;;;14.34;35.28;92712.44;2058430;69;20058;-78
2023/03/03 09:58:04;;;;;;;;;;;;;;;15.47;34.33;92718.22;2058518;69;20046;-79
2023/03/03 10:00:48;;;;;;;;;;;;;;;14.29;36.15;92715.72;2058598;69;20062;-74
2023/03/03 10:03:13;;;;;;;;;;;;;;;14.63;34.42;92706.03;2058094;69;20152;-75
2023/03/03 10:05:45;;;;;;;;;;;;;;;15.02;34.71;92704.91;2057584;69;20208;-78
2023/03/03 10:08:27;;;;;;;;;;;;;;;16.41;33.10;92707.91;2057826;69;20092;-78
2023/03/03 10:11:00;;;;;;;;;;;;;;;15.73;33.56;92708.00;2057953;69;20089;-78
2023/03/03 10:13:52;;;;;;;;;;;;;;;14.97;34.20;92697.59;2058255;69;20183;-77
2023/03/03 10:16:17;;;;;;;;;;;;;;;14.08;35.91;92700.59;2058230;69;20090;-76
2023/03/03 10:19:02;;;;;;;;;;;;;;;13.99;36.29;92698.75;2058121;69;20088;-79
2023/03/03 10:21:36;;;;;;;;;;;;;;;14.35;36.40;92694.09;2058334;69;20508;-77
2023/03/03 10:24:08;;;;;;;;;;;;;;;14.63;35.66;92708.84;2058426;69;20062;-80
2023/03/03 10:26:53;;;;;;;;;;;;;;;14.51;35.45;92694.13;2058550;69;20057;-77
2023/03/03 10:29:37;;;;;;;;;;;;;;;14.51;35.38;92704.72;2058387;69;20093;-78
2023/03/03 10:32:08;;;;;;;;;;;;;;;14.11;35.56;92696.50;2058267;69;20116;-76
2023/03/03 10:34:48;;;;;;;;;;;;;;;13.76;35.82;92705.41;2058843;69;20121;-81
2023/03/03 10:37:23;;;;;;;;;;;;;;;16.47;33.71;92706.00;2050854;70;20411;-77
2023/03/03 10:40:17;;;;;;;;;;;;;;;15.81;32.49;92701.97;2051494;70;20054;-76
2023/03/03 10:42:49;;;;;;;;;;;;;;;14.49;34.75;92703.28;2047840;70;20055;-77
2023/03/03 10:45:30;;;;;;;;;;;;;;;16.02;33.05;92695.72;2051431;69;20043;-76
2023/03/03 10:48:02;;;;;;;;;;;;;;;17.31;32.09;92694.19;2051322;70;20097;-75
2023/03/03 10:50:46;;;;;;;;;;;;;;;17.23;30.32;92701.06;2051409;70;20097;-77
2023/03/03 10:53:19;;;;;;;;;;;;;;;18.43;29.93;92701.59;2051404;70;20067;-76
2023/03/03 10:56:05;;;;;;;;;;;;;;;16.69;31.31;92689.09;2051496;70;20078;-74
2023/03/03 10:58:58;;;;;;;;;;;;;;;19.30;29.30;92691.38;2051316;70;20118;-77
2023/03/03 11:01:35;;;;;;;;;;;;;;;20.64;28.80;92693.41;2049835;70;20065;-76
2023/03/03 11:04:04;;;;;;;;;;;;;;;20.16;28.33;92693.66;2051357;70;20070;-77
2023/03/03 11:06:32;;;;;;;;;;;;;;;19.55;27.41;92693.47;2050870;70;20058;-80
2023/03/03 11:09:14;;;;;;;;;;;;;;;22.73;25.89;92701.81;2051467;70;20081;-80
2023/03/03 11:11:40;;;;;;;;;;;;;;;23.31;24.79;92689.75;2051414;70;20538;-80
2023/03/03 11:14:20;;;;;;;;;;;;;;;20.96;25.75;92688.44;2051909;70;20510;-80
2023/03/03 11:17:00;;;;;;;;;;;;;;;23.17;24.94;92690.28;2051364;70;20074;-76
2023/03/03 11:19:30;;;;;;;;;;;;;;;21.05;26.93;92698.66;2051846;70;20109;-79
2023/03/03 11:21:56;;;;;;;;;;;;;;;24.13;23.80;92691.44;2051836;69;20082;-78
2023/03/03 11:24:53;;;;;;;;;;;;;;;22.29;24.54;92691.06;2051818;70;20117;-79
2023/03/03 11:27:21;;;;;;;;;;;;;;;24.81;22.36;92689.91;2047778;70;20086;-74
2023/03/03 11:29:50;;;;;;;;;;;;;;;27.26;20.90;92694.34;2047644;70;20087;-80
2023/03/03 11:32:21;;;;;;;;;;;;;;;27.80;20.29;92686.25;2047529;70;20408;-78
2023/03/03 11:34:49;;;;;;;;;;;;;;;24.69;22.28;92687.66;2047670;70;20072;-78
2023/03/03 11:37:22;;;;;;;;;;;;;;;24.79;22.07;92672.66;2054702;69;20153;-76
2023/03/03 11:39:48;;;;;;;;;;;;;;;27.63;20.44;92674.03;2055326;69;20519;-74
2023/03/03 11:42:33;;;;;;;;;;;;;;;27.27;19.30;92669.06;2054645;69;20047;-75
2023/03/03 11:45:05;;;;;;;;;;;;;;;27.66;20.15;92666.03;2054655;70;20626;-75
2023/03/03 11:47:54;;;;;;;;;;;;;;;28.73;19.20;92653.19;2054699;69;20047;-75
2023/03/03 11:50:19;;;;;;;;;;;;;;;28.34;19.68;92650.56;2054950;69;20092;-75
2023/03/03 11:52:53;;;;;;;;;;;;;;;26.85;19.79;92645.25;2051869;70;20058;-75
2023/03/03 11:55:21;;;;;;;;;;;;;;;30.39;18.26;92649.22;2054429;69;20050;-74
2023/03/03 11:57:54;;;;;;;;;;;;;;;27.27;19.17;92648.84;2054491;69;20142;-73
2023/03/03 12:00:24;;;;;;;;;;;;;;;28.76;19.20;92645.19;2053638;70;20054;-75
2023/03/03 12:02:50;;;;;;;;;;;;;;;28.12;19.86;92642.69;2054980;69;20050;-76
2023/03/03 12:05:15;;;;;;;;;;;;;;;27.27;19.28;92634.38;2055412;69;20053;-74
2023/03/03 12:08:06;;;;;;;;;;;;;;;27.01;19.52;92623.56;2055419;69;20133;-73
2023/03/03 12:10:37;;;;;;;;;;;;;;;30.23;17.82;92634.94;2055522;69;20152;-73
2023/03/03 12:13:05;;;;;;;;;;;;;;;29.42;18.30;92631.53;2055455;69;20125;-73
2023/03/03 12:15:49;;;;;;;;;;;;;;;30.42;17.61;92638.28;2055424;69;20050;-76
2023/03/03 12:18:35;;;;;;;;;;;;;;;31.57;16.98;92629.84;2055346;69;20064;-75
2023/03/03 12:21:03;;;;;;;;;;;;;;;29.06;17.57;92626.84;2054647;69;20062;-74
2023/03/03 12:23:48;;;;;;;;;;;;;;;27.84;19.38;92625.50;2055364;69;20440;-74
2023/03/03 12:26:24;;;;;;;;;;;;;;;29.90;17.31;92620.13;2055368;69;20089;-76
2023/03/03 12:28:54;;;;;;;;;;;;;;;24.99;20.43;92602.94;2055409;69;20050;-74
2023/03/03 12:31:38;;;;;;;;;;;;;;;24.38;21.20;92597.53;2055324;69;20054;-77
2023/03/03 12:34:11;;;;;;;;;;;;;;;27.04;19.97;92604.81;2055299;69;20138;-74
2023/03/03 12:36:58;;;;;;;;;;;;;;;31.23;16.23;92607.19;2057884;69;20050;-76
2023/03/03 12:39:46;;;;;;;;;;;;;;;27.47;19.02;92601.78;2058700;69;20077;-75
2023/03/03 12:42:35;;;;;;;;;;;;;;;25.71;20.27;92598.94;2056770;69;20179;-75
2023/03/03 12:45:03;;;;;;;;;;;;;;;23.03;23.22;92598.22;2058772;69;20510;-75
2023/03/03 12:47:29;;;;;;;;;;;;;;;24.03;21.96;92588.56;2058594;69;20046;-74
2023/03/03 12:49:57;;;;;;;;;;;;;;;24.34;21.62;92591.69;2058756;69;20084;-74
2023/03/03 12:52:29;;;;;;;;;;;;;;;24.67;22.68;92591.97;2058672;69;20145;-74
2023/03/03 12:54:57;;;;;;;;;;;;;;;23.62;22.71;92578.09;2058721;69;20116;-74
2023/03/03 12:57:32;;;;;;;;;;;;;;;21.58;25.18;92573.03;2058587;69;20058;-76
2023/03/03 13:00:09;;;;;;;;;;;;;;;21.14;24.69;92573.59;2058622;69;20050;-74
2023/03/03 13:02:42;;;;;;;;;;;;;;;20.59;25.77;92575.34;2058475;69;20085;-73
2023/03/03 13:05:18;;;;;;;;;;;;;;;19.20;27.82;92576.94;2058624;69;20058;-76
2023/03/03 13:08:07;;;;;;;;;;;;;;;18.39;28.79;92564.66;2058553;69;20050;-75